Time;durP1;ratioP1;P1;durP2;ratioP2;P2;SDS_P1;SDS_P2;PMS_P1;PMS_P2;Temp;Humidity;BMP_temperature;BMP_pressure;BME280_temperature;BME280_humidity;BME280_pressure;Samples;Min_cycle;Max_cycle;Signal;HPM_P1;HPM_P2
2020/12/07 00:02:43;;;;;;;21.35;13.69;;;;;;;3.09;85.13;97541.25;2022006;80;20327;-71
2020/12/07 00:05:45;;;;;;;19.64;13.46;;;;;;;3.08;84.96;97539.53;2022741;80;20453;-71
2020/12/07 00:08:47;;;;;;;20.25;12.65;;;;;;;3.06;84.75;97536.97;2022195;80;20355;-71
2020/12/07 00:11:49;;;;;;;19.81;12.61;;;;;;;3.02;84.67;97533.56;2022439;79;20801;-71
2020/12/07 00:14:52;;;;;;;21.67;12.63;;;;;;;3.00;84.55;97537.84;2021557;80;20371;-71
2020/12/07 00:17:54;;;;;;;16.99;11.24;;;;;;;2.98;84.46;97541.28;2021983;80;20353;-71
2020/12/07 00:20:55;;;;;;;19.58;12.11;;;;;;;2.94;84.29;97535.31;2022490;80;20363;-71
2020/12/07 00:23:57;;;;;;;16.65;11.54;;;;;;;2.88;83.90;97539.63;2022442;80;20361;-71
2020/12/07 00:26:58;;;;;;;18.89;12.40;;;;;;;2.84;84.14;97541.31;2022264;80;20324;-71
2020/12/07 00:30:02;;;;;;;18.88;11.94;;;;;;;2.82;84.27;97534.50;2021849;80;20349;-70
2020/12/07 00:33:04;;;;;;;18.04;12.06;;;;;;;2.79;84.45;97540.50;2064367;70;20364;-71
2020/12/07 00:36:06;;;;;;;20.08;11.63;;;;;;;2.78;84.51;97545.63;2021532;80;20345;-71
2020/12/07 00:39:07;;;;;;;15.26;10.80;;;;;;;2.74;84.55;97539.66;2022467;80;20328;-71
2020/12/07 00:42:09;;;;;;;16.90;11.01;;;;;;;2.72;84.58;97546.50;2022595;80;20997;-71
2020/12/07 00:45:12;;;;;;;15.07;10.26;;;;;;;2.70;84.59;97541.41;2021734;80;20381;-71
2020/12/07 00:48:13;;;;;;;15.49;10.60;;;;;;;2.66;84.66;97543.94;2021861;80;20292;-71
2020/12/07 00:51:18;;;;;;;18.24;10.68;;;;;;;2.63;84.67;97541.41;2022314;80;20340;-71
2020/12/07 00:54:20;;;;;;;15.66;10.34;;;;;;;2.56;84.66;97540.56;2022277;80;20357;-71
2020/12/07 00:57:21;;;;;;;15.65;11.49;;;;;;;2.54;84.88;97549.13;2022111;80;20446;-71
2020/12/07 01:00:23;;;;;;;17.48;11.50;;;;;;;2.53;84.94;97547.44;2022666;80;20363;-71
2020/12/07 01:03:24;;;;;;;14.63;10.60;;;;;;;2.49;85.04;97546.56;2021843;80;20324;-71
2020/12/07 01:06:30;;;;;;;17.21;10.48;;;;;;;2.50;85.13;97552.53;2022449;80;20818;-71
2020/12/07 01:09:32;;;;;;;15.02;10.04;;;;;;;2.49;85.23;97551.69;2023230;80;20316;-71
2020/12/07 01:12:34;;;;;;;17.41;11.35;;;;;;;2.50;85.36;97548.25;2022340;80;20331;-71
2020/12/07 01:15:37;;;;;;;16.84;11.48;;;;;;;2.50;85.41;97550.81;2022404;80;20320;-71
2020/12/07 01:18:38;;;;;;;16.02;10.73;;;;;;;2.50;85.51;97557.66;2022909;80;20341;-71
2020/12/07 01:21:40;;;;;;;20.65;11.84;;;;;;;2.50;85.58;97549.97;2022553;80;20840;-71
2020/12/07 01:24:42;;;;;;;16.11;10.39;;;;;;;2.51;85.62;97547.41;2022537;80;20454;-70
2020/12/07 01:27:44;;;;;;;16.20;11.24;;;;;;;2.51;85.72;97549.09;2022660;80;20312;-71
2020/12/07 01:30:46;;;;;;;16.17;10.98;;;;;;;2.52;85.69;97546.56;2023081;80;21130;-71
2020/12/07 01:33:47;;;;;;;18.01;11.71;;;;;;;2.50;85.63;97549.97;2022544;80;20940;-71
2020/12/07 01:36:49;;;;;;;17.02;11.07;;;;;;;2.49;85.79;97553.38;2022626;80;20407;-71
2020/12/07 01:39:51;;;;;;;17.55;11.57;;;;;;;2.52;85.80;97558.53;2021509;80;20379;-71
2020/12/07 01:42:52;;;;;;;14.64;10.35;;;;;;;2.51;85.75;97557.66;2022767;80;20400;-71
2020/12/07 01:45:55;;;;;;;17.08;11.52;;;;;;;2.50;85.61;97562.78;2021672;80;20304;-71
2020/12/07 01:48:57;;;;;;;16.73;11.16;;;;;;;2.50;85.73;97565.34;2022142;80;20331;-71
2020/12/07 01:51:58;;;;;;;17.61;11.95;;;;;;;2.51;85.70;97577.28;2022725;80;20660;-71
2020/12/07 01:55:01;;;;;;;18.26;12.15;;;;;;;2.52;85.63;97576.47;2022051;80;20319;-71
2020/12/07 01:58:02;;;;;;;17.70;11.29;;;;;;;2.52;85.44;97569.63;2021987;80;20340;-71
2020/12/07 02:01:04;;;;;;;18.23;11.55;;;;;;;2.52;85.55;97576.47;2022792;80;20676;-71
2020/12/07 02:04:06;;;;;;;19.11;12.18;;;;;;;2.52;85.55;97572.19;2023150;80;20427;-71
2020/12/07 02:07:17;;;;;;;17.59;12.23;;;;;;;2.54;85.62;97573.03;2022954;80;20860;-71
2020/12/07 02:10:18;;;;;;;17.02;11.45;;;;;;;2.55;85.68;97567.06;2023805;80;20573;-71
2020/12/07 02:13:20;;;;;;;17.73;11.21;;;;;;;2.55;85.71;97563.63;2022268;80;20311;-71
2020/12/07 02:16:22;;;;;;;18.20;11.48;;;;;;;2.57;85.86;97567.03;2022370;80;20483;-71
2020/12/07 02:19:23;;;;;;;17.27;11.20;;;;;;;2.58;85.96;97566.19;2022256;80;20345;-71
2020/12/07 02:22:25;;;;;;;16.81;10.98;;;;;;;2.61;86.01;97572.16;2022425;80;20331;-77
2020/12/07 02:25:26;;;;;;;15.84;10.11;;;;;;;2.63;85.96;97570.44;2022806;80;20320;-77
2020/12/07 02:28:28;;;;;;;16.50;10.49;;;;;;;2.63;85.82;97574.72;2021807;80;20466;-78
2020/12/07 02:31:30;;;;;;;15.61;10.75;;;;;;;2.64;85.76;97574.69;2022485;80;20345;-78
2020/12/07 02:34:32;;;;;;;15.98;10.30;;;;;;;2.64;85.73;97571.28;2022645;80;20327;-77
2020/12/07 02:37:34;;;;;;;17.39;11.19;;;;;;;2.62;85.72;97567.88;2022233;80;20354;-78
2020/12/07 02:40:37;;;;;;;16.27;10.81;;;;;;;2.60;85.49;97564.47;2022052;80;20336;-77
2020/12/07 02:43:39;;;;;;;14.44;10.25;;;;;;;2.62;85.57;97565.31;2022239;80;20341;-78
2020/12/07 02:46:40;;;;;;;17.39;10.84;;;;;;;2.61;85.54;97569.59;2022610;79;20806;-77
2020/12/07 02:49:42;;;;;;;13.82;10.19;;;;;;;2.59;85.41;97562.78;2022612;80;20366;-77
2020/12/07 02:52:44;;;;;;;15.20;10.88;;;;;;;2.57;85.57;97565.34;2022445;80;20344;-78
2020/12/07 02:55:45;;;;;;;13.89;10.21;;;;;;;2.59;85.61;97567.88;2022055;80;20792;-78
2020/12/07 02:58:47;;;;;;;15.14;10.61;;;;;;;2.62;85.80;97570.44;2022783;80;20350;-76
2020/12/07 03:01:48;;;;;;;15.79;10.29;;;;;;;2.65;85.98;97570.44;2022513;80;20356;-77
2020/12/07 03:04:50;;;;;;;15.19;10.81;;;;;;;2.66;85.98;97575.53;2023753;80;20308;-76
2020/12/07 03:07:52;;;;;;;15.40;10.11;;;;;;;2.64;86.00;97569.56;2025026;80;20363;-76
2020/12/07 03:10:53;;;;;;;15.60;9.81;;;;;;;2.63;85.97;97564.47;2024088;80;20315;-76
2020/12/07 03:13:55;;;;;;;15.40;9.82;;;;;;;2.61;85.82;97564.47;2024184;80;20319;-76
2020/12/07 03:16:57;;;;;;;13.41;9.59;;;;;;;2.60;85.66;97554.22;2023869;80;20324;-76
2020/12/07 03:19:58;;;;;;;14.48;9.71;;;;;;;2.56;85.78;97550.81;2022803;80;20329;-76
2020/12/07 03:23:00;;;;;;;14.80;9.54;;;;;;;2.59;85.81;97562.78;2023468;80;20327;-76
2020/12/07 03:26:01;;;;;;;13.85;9.55;;;;;;;2.57;85.81;97559.34;2022573;80;20361;-76
2020/12/07 03:29:04;;;;;;;15.10;9.36;;;;;;;2.56;85.79;97565.34;2023050;79;20350;-76
2020/12/07 03:32:06;;;;;;;14.27;9.46;;;;;;;2.54;85.78;97567.06;2023399;80;20392;-76
2020/12/07 03:35:08;;;;;;;14.77;9.75;;;;;;;2.51;85.92;97564.47;2023190;80;20363;-76
2020/12/07 03:38:09;;;;;;;15.82;9.99;;;;;;;2.53;86.01;97567.91;2022796;80;20341;-77
2020/12/07 03:41:11;;;;;;;13.90;9.21;;;;;;;2.52;86.12;97567.06;2022772;80;20390;-77
2020/12/07 03:44:12;;;;;;;16.91;10.07;;;;;;;2.54;86.17;97567.06;2023454;80;20315;-76
2020/12/07 03:47:14;;;;;;;15.16;9.90;;;;;;;2.56;86.24;97575.59;2023604;80;20834;-77
2020/12/07 03:50:15;;;;;;;13.90;9.76;;;;;;;2.55;86.17;97573.88;2023900;80;20315;-76
2020/12/07 03:53:17;;;;;;;14.31;9.40;;;;;;;2.48;85.99;97585.81;2024295;80;20703;-76
2020/12/07 03:56:19;;;;;;;16.59;10.02;;;;;;;2.46;86.03;97587.53;2023833;80;20353;-76
2020/12/07 03:59:20;;;;;;;16.51;10.69;;;;;;;2.48;86.10;97590.09;2023972;80;20701;-77
2020/12/07 04:02:22;;;;;;;14.52;10.19;;;;;;;2.50;86.20;97589.25;2022240;80;20327;-76
2020/12/07 04:05:30;;;;;;;15.32;9.44;;;;;;;2.53;86.28;97593.53;2022105;80;20335;-76
2020/12/07 04:08:32;;;;;;;13.81;9.21;;;;;;;2.55;86.36;97602.06;2022584;80;20332;-76
2020/12/07 04:11:34;;;;;;;15.23;9.80;;;;;;;2.58;86.27;97591.81;2022145;79;20199;-76
2020/12/07 04:14:36;;;;;;;13.52;9.29;;;;;;;2.59;86.19;97596.94;2021455;80;20327;-76
2020/12/07 04:17:37;;;;;;;12.29;8.81;;;;;;;2.60;86.09;97597.78;2022494;80;20680;-76
2020/12/07 04:20:39;;;;;;;15.85;9.14;;;;;;;2.59;85.87;97603.75;2021965;80;20345;-76
2020/12/07 04:23:40;;;;;;;10.70;8.27;;;;;;;2.59;85.95;97601.19;2020162;80;20541;-76
2020/12/07 04:26:42;;;;;;;14.38;9.26;;;;;;;2.59;85.73;97603.75;2020774;80;20357;-76
2020/12/07 04:29:44;;;;;;;12.79;8.90;;;;;;;2.61;85.87;97605.47;2022548;80;20300;-76
2020/12/07 04:32:45;;;;;;;10.93;8.36;;;;;;;2.61;85.91;97610.59;2022984;80;20465;-76
2020/12/07 04:35:47;;;;;;;11.74;8.11;;;;;;;2.64;85.97;97612.28;2022687;80;20377;-76
2020/12/07 04:38:49;;;;;;;11.77;8.49;;;;;;;2.67;85.94;97607.13;2023385;80;20327;-77
2020/12/07 04:41:51;;;;;;;13.20;8.45;;;;;;;2.67;85.83;97607.13;2023559;80;20337;-77
2020/12/07 04:44:53;;;;;;;11.39;7.90;;;;;;;2.68;85.88;97606.28;2022942;80;20414;-76
2020/12/07 04:47:58;;;;;;;13.70;8.85;;;;;;;2.68;85.90;97607.13;2023157;80;20304;-76
2020/12/07 04:51:01;;;;;;;13.86;8.64;;;;;;;2.68;85.91;97613.97;2023149;80;20323;-76
2020/12/07 04:54:03;;;;;;;12.65;8.49;;;;;;;2.68;85.90;97609.69;2023176;80;20328;-76
2020/12/07 04:57:05;;;;;;;11.80;8.23;;;;;;;2.68;85.87;97608.84;2022793;80;20353;-76
2020/12/07 05:00:07;;;;;;;12.41;8.49;;;;;;;2.69;85.89;97608.88;2023428;80;20805;-76
2020/12/07 05:03:08;;;;;;;10.93;7.90;;;;;;;2.69;85.92;97608.88;2022774;80;20354;-76
2020/12/07 05:06:13;;;;;;;11.26;7.57;;;;;;;2.66;85.98;97608.84;2023542;80;20966;-76
2020/12/07 05:09:15;;;;;;;12.75;8.48;;;;;;;2.67;86.09;97599.47;2022688;80;21068;-76
2020/12/07 05:12:26;;;;;;;11.44;8.41;;;;;;;2.65;86.12;97607.16;2022243;80;20316;-76
2020/12/07 05:15:30;;;;;;;13.27;8.64;;;;;;;2.67;86.20;97609.72;2022765;80;20445;-76
2020/12/07 05:18:34;;;;;;;12.39;8.69;;;;;;;2.64;86.18;97607.16;2022808;80;20324;-76
2020/12/07 05:21:39;;;;;;;11.57;8.07;;;;;;;2.65;86.46;97611.41;2022555;80;20304;-76
2020/12/07 05:24:42;;;;;;;11.29;7.82;;;;;;;2.64;86.48;97618.25;2022692;80;20430;-76
2020/12/07 05:27:46;;;;;;;10.46;7.61;;;;;;;2.65;86.64;97625.09;2022881;79;20334;-76
2020/12/07 05:30:50;;;;;;;11.27;7.63;;;;;;;2.65;86.75;97619.97;2022247;80;20388;-76
2020/12/07 05:33:52;;;;;;;10.89;8.11;;;;;;;2.66;86.93;97619.09;2022196;79;20852;-76
2020/12/07 05:36:57;;;;;;;13.30;8.93;;;;;;;2.66;86.82;97625.94;2023668;80;20308;-76
2020/12/07 05:40:11;;;;;;;10.55;7.69;;;;;;;2.66;86.78;97628.50;2022720;80;20316;-76
2020/12/07 05:43:13;;;;;;;9.94;7.46;;;;;;;2.66;86.66;97639.59;2022473;80;20756;-76
2020/12/07 05:46:14;;;;;;;12.60;7.51;;;;;;;2.60;86.59;97636.22;2021789;80;20781;-76
2020/12/07 05:49:16;;;;;;;11.63;7.89;;;;;;;2.62;86.83;97643.03;2023320;80;20332;-76
2020/12/07 05:52:51;;;;;;;13.10;8.85;;;;;;;2.64;86.89;97641.31;2022956;80;20376;-76
2020/12/07 05:55:54;;;;;;;10.64;6.97;;;;;;;2.69;86.92;97643.84;2022439;80;20352;-76
2020/12/07 05:59:29;;;;;;;10.10;7.76;;;;;;;2.70;86.76;97643.03;2023177;80;20327;-76
2020/12/07 06:02:33;;;;;;;12.74;8.77;;;;;;;2.72;86.79;97649.84;2022946;80;20336;-76
2020/12/07 06:05:35;;;;;;;13.52;8.30;;;;;;;2.76;86.71;97644.72;2023189;80;20327;-76
2020/12/07 06:08:40;;;;;;;10.75;7.35;;;;;;;2.74;86.62;97649.84;2022052;80;20304;-76
2020/12/07 06:11:51;;;;;;;11.94;8.05;;;;;;;2.76;86.65;97655.81;2022832;80;20395;-76
2020/12/07 06:14:53;;;;;;;10.24;7.16;;;;;;;2.72;86.53;97652.44;2022055;80;20340;-76
2020/12/07 06:17:54;;;;;;;16.00;8.50;;;;;;;2.67;86.44;97661.81;2025088;79;20780;-77
2020/12/07 06:21:06;;;;;;;11.73;8.64;;;;;;;2.65;86.62;97655.81;2022770;80;20524;-77
2020/12/07 06:24:07;;;;;;;12.51;8.56;;;;;;;2.65;86.75;97665.22;2022415;80;20326;-76
2020/12/07 06:27:12;;;;;;;14.19;8.70;;;;;;;2.67;86.82;97671.19;2023129;80;20323;-76
2020/12/07 06:30:18;;;;;;;13.31;8.13;;;;;;;2.66;86.76;97667.78;2023103;80;20905;-76
2020/12/07 06:33:20;;;;;;;11.41;7.96;;;;;;;2.65;86.92;97670.34;2022596;80;20357;-76
2020/12/07 06:36:23;;;;;;;14.31;8.30;;;;;;;2.66;87.14;97683.16;2021270;80;20365;-77
2020/12/07 06:39:25;;;;;;;14.55;8.38;;;;;;;2.71;87.23;97678.06;2022072;80;20803;-76
2020/12/07 06:42:27;;;;;;;12.01;8.09;;;;;;;2.74;87.02;97688.28;2022857;80;20345;-77
2020/12/07 06:45:31;;;;;;;11.95;7.76;;;;;;;2.77;87.22;97690.84;2022431;80;20327;-76
2020/12/07 06:48:36;;;;;;;11.81;8.88;;;;;;;2.81;87.07;97687.41;2022362;80;20426;-77
2020/12/07 06:51:38;;;;;;;11.75;7.59;;;;;;;2.83;86.90;97695.94;2025687;80;20320;-77
2020/12/07 06:58:01;;;;;;;11.84;7.28;;;;;;;2.84;86.69;97696.81;2023253;80;20333;-79
2020/12/07 07:01:08;;;;;;;9.51;7.68;;;;;;;2.80;86.51;97698.53;2022638;80;20786;-78
2020/12/07 07:04:09;;;;;;;11.14;7.80;;;;;;;2.83;86.80;97700.22;2022887;80;20320;-77
2020/12/07 07:07:18;;;;;;;12.93;8.00;;;;;;;2.85;86.71;97706.19;2023193;80;20319;-78
2020/12/07 07:10:20;;;;;;;10.70;7.30;;;;;;;2.83;86.57;97708.78;2023475;80;20418;-76
2020/12/07 07:13:22;;;;;;;11.93;8.34;;;;;;;2.84;86.74;97704.50;2022112;80;20202;-76
2020/12/07 07:16:23;;;;;;;10.86;7.45;;;;;;;2.87;86.72;97707.06;2023443;80;20422;-81
2020/12/07 07:19:25;;;;;;;12.46;7.95;;;;;;;2.81;86.54;97710.47;2022438;80;20328;-77
2020/12/07 07:22:27;;;;;;;12.46;8.55;;;;;;;2.80;86.51;97715.63;2021931;80;20345;-72
2020/12/07 07:25:43;;;;;;;12.85;8.85;;;;;;;2.77;86.45;97724.16;2022636;80;20305;-72
2020/12/07 07:28:46;;;;;;;11.76;7.66;;;;;;;2.76;86.59;97725.03;2022239;80;20780;-71
2020/12/07 07:31:48;;;;;;;13.15;8.39;;;;;;;2.79;86.62;97727.56;2022507;80;20349;-71
2020/12/07 07:34:49;;;;;;;14.00;8.29;;;;;;;2.83;86.67;97726.72;2021762;80;20328;-73
2020/12/07 07:37:51;;;;;;;12.80;8.00;;;;;;;2.82;86.44;97721.59;2021759;80;20425;-72
2020/12/07 07:40:53;;;;;;;12.04;7.74;;;;;;;2.85;86.50;97734.41;2021931;80;20728;-72
2020/12/07 07:43:55;;;;;;;12.99;8.60;;;;;;;2.87;86.51;97725.00;2021998;80;20315;-70
2020/12/07 07:46:57;;;;;;;12.82;7.79;;;;;;;2.84;86.29;97727.56;2021623;80;20724;-70
2020/12/07 08:03:43;;;;;;;14.55;9.80;;;;;;;2.86;85.99;97752.34;2022549;80;20324;-70
2020/12/07 08:16:26;;;;;;;15.68;10.16;;;;;;;2.85;85.51;97757.47;2022826;80;20315;-70
2020/12/07 08:19:30;;;;;;;16.34;10.34;;;;;;;2.85;85.49;97762.59;2022858;80;20659;-70
2020/12/07 08:22:32;;;;;;;15.07;9.89;;;;;;;2.84;85.28;97763.44;2022832;80;20327;-70
2020/12/07 08:25:51;;;;;;;14.49;10.54;;;;;;;2.81;85.17;97763.44;2022801;80;20351;-69
2020/12/07 08:28:53;;;;;;;15.79;10.99;;;;;;;2.80;85.20;97765.16;2025613;79;21104;-70
2020/12/07 08:31:55;;;;;;;15.40;10.74;;;;;;;2.82;85.20;97771.13;2022635;79;20312;-70
2020/12/07 08:34:57;;;;;;;16.89;11.89;;;;;;;2.89;85.52;97777.13;2022315;80;20300;-71
2020/12/07 08:37:58;;;;;;;17.84;12.38;;;;;;;2.92;85.39;97772.84;2022800;80;20349;-71
2020/12/07 08:41:10;;;;;;;16.99;11.80;;;;;;;3.04;85.43;97769.41;2022961;80;20327;-71
2020/12/07 08:44:12;;;;;;;17.46;12.07;;;;;;;3.15;85.35;97787.38;2022976;80;20320;-71
2020/12/07 08:47:17;;;;;;;15.61;11.31;;;;;;;3.24;85.04;97783.09;2023703;80;21021;-71
2020/12/07 08:50:18;;;;;;;15.74;11.23;;;;;;;3.27;84.91;97780.53;2022803;80;20333;-71
2020/12/07 08:53:20;;;;;;;14.71;11.20;;;;;;;3.37;84.71;97783.06;2022721;80;20347;-71
2020/12/07 08:56:22;;;;;;;16.46;11.46;;;;;;;3.40;84.48;97788.16;2022905;80;20312;-71
2020/12/07 08:59:23;;;;;;;13.80;10.15;;;;;;;3.42;84.19;97794.19;2022706;80;20343;-71
2020/12/07 09:02:26;;;;;;;14.41;10.64;;;;;;;3.43;84.04;97796.75;2022811;80;20320;-70
2020/12/07 09:05:28;;;;;;;14.10;10.14;;;;;;;3.37;83.78;97798.44;2025840;80;20384;-70
2020/12/07 09:08:30;;;;;;;12.66;9.75;;;;;;;3.36;83.82;97801.88;2023071;80;20975;-70
2020/12/07 09:11:31;;;;;;;13.16;8.95;;;;;;;3.29;83.76;97801.88;2023250;80;20801;-70
2020/12/07 09:14:33;;;;;;;13.60;9.18;;;;;;;3.21;83.72;97803.59;2022849;80;20389;-70
2020/12/07 09:17:34;;;;;;;12.44;8.77;;;;;;;3.15;83.93;97808.72;2023094;79;20369;-70
2020/12/07 09:20:36;;;;;;;11.49;8.56;;;;;;;3.10;84.00;97807.88;2025664;79;20311;-70
2020/12/07 09:23:38;;;;;;;12.55;8.16;;;;;;;3.08;84.00;97817.28;2022103;80;20898;-71
2020/12/07 09:26:40;;;;;;;11.71;8.41;;;;;;;3.06;84.24;97816.44;2022628;80;20357;-71
2020/12/07 09:29:41;;;;;;;13.71;8.36;;;;;;;3.07;84.22;97810.47;2023254;80;20356;-70
2020/12/07 09:32:43;;;;;;;13.60;9.21;;;;;;;3.02;84.07;97817.28;2022228;80;20808;-70
2020/12/07 09:35:44;;;;;;;14.48;9.56;;;;;;;3.04;84.33;97821.53;2022459;80;20345;-70
2020/12/07 09:38:46;;;;;;;13.13;8.63;;;;;;;3.06;84.26;97821.56;2022724;80;20337;-71
2020/12/07 09:41:48;;;;;;;12.56;8.26;;;;;;;3.05;84.37;97827.53;2022268;80;20307;-70
2020/12/07 09:44:49;;;;;;;13.81;9.04;;;;;;;3.04;84.48;97821.53;2023185;80;20329;-72
2020/12/07 09:47:51;;;;;;;13.94;9.35;;;;;;;3.07;84.79;97830.97;2021505;80;20316;-71
2020/12/07 09:50:52;;;;;;;13.96;8.39;;;;;;;3.12;84.61;97823.28;2020515;80;20341;-71
2020/12/07 09:53:54;;;;;;;14.15;8.01;;;;;;;3.11;84.32;97826.69;2022025;80;20367;-71
2020/12/07 09:56:56;;;;;;;13.09;8.43;;;;;;;3.11;84.30;97831.81;2022541;80;20699;-71
2020/12/07 09:59:57;;;;;;;14.93;8.68;;;;;;;3.11;84.32;97829.25;2022495;79;20344;-71
2020/12/07 10:02:59;;;;;;;14.98;9.16;;;;;;;3.10;84.08;97837.81;2023042;80;20823;-71
2020/12/07 10:06:00;;;;;;;14.38;8.70;;;;;;;3.09;83.93;97826.69;2022263;80;20319;-71
2020/12/07 10:09:02;;;;;;;14.71;8.56;;;;;;;3.12;83.89;97825.84;2021702;80;20357;-70
2020/12/07 10:12:05;;;;;;;14.16;8.43;;;;;;;3.16;83.95;97830.09;2021920;80;20365;-70
2020/12/07 10:15:07;;;;;;;13.70;8.68;;;;;;;3.22;84.21;97830.09;2022985;80;20433;-70
2020/12/07 10:18:08;;;;;;;13.26;8.06;;;;;;;3.23;83.84;97829.22;2023425;80;20728;-70
2020/12/07 10:21:10;;;;;;;12.95;7.30;;;;;;;3.33;83.81;97820.69;2023215;80;20808;-70
2020/12/07 10:24:12;;;;;;;13.18;7.69;;;;;;;3.37;83.24;97827.50;2022223;80;20320;-70
2020/12/07 10:27:15;;;;;;;12.23;7.40;;;;;;;3.26;82.38;97824.97;2023049;80;20372;-70
2020/12/07 10:30:17;;;;;;;11.75;7.68;;;;;;;3.33;82.87;97810.44;2023615;80;20376;-70
2020/12/07 10:33:18;;;;;;;11.26;7.56;;;;;;;3.40;82.90;97813.81;2022574;80;20344;-70
2020/12/07 10:36:21;;;;;;;11.05;6.91;;;;;;;3.45;82.83;97812.97;2022527;80;20342;-70
2020/12/07 10:39:22;;;;;;;11.29;7.24;;;;;;;3.44;82.31;97820.69;2022638;80;21061;-70
2020/12/07 10:42:24;;;;;;;11.88;7.71;;;;;;;3.45;82.57;97812.97;2022476;80;20945;-70
2020/12/07 10:45:26;;;;;;;12.02;7.16;;;;;;;3.50;82.91;97818.94;2022982;80;20789;-70
2020/12/07 10:48:28;;;;;;;9.85;6.56;;;;;;;3.61;82.85;97808.69;2022468;80;20919;-71
2020/12/07 10:51:29;;;;;;;10.91;6.46;;;;;;;3.72;82.83;97809.47;2022102;80;20809;-70
2020/12/07 10:54:31;;;;;;;11.05;6.88;;;;;;;3.76;82.33;97807.75;2023132;80;20985;-71
2020/12/07 10:57:33;;;;;;;9.57;6.38;;;;;;;3.75;81.99;97803.47;2022688;80;20453;-70
2020/12/07 11:00:37;;;;;;;9.64;6.47;;;;;;;3.81;81.90;97806.06;2022548;80;20365;-70
2020/12/07 11:03:40;;;;;;;9.99;6.53;;;;;;;3.83;81.56;97800.06;2022461;80;20785;-70
2020/12/07 11:06:44;;;;;;;10.01;6.39;;;;;;;3.85;81.17;97803.47;2022522;80;20371;-70
2020/12/07 11:09:46;;;;;;;10.05;7.16;;;;;;;3.82;81.01;97797.50;2023212;79;20635;-70
2020/12/07 11:12:56;;;;;;;9.98;6.22;;;;;;;3.79;80.67;97793.22;2022400;80;20399;-70
2020/12/07 11:16:01;;;;;;;10.06;6.95;;;;;;;3.83;81.03;97783.78;2022830;80;20307;-70
2020/12/07 11:19:03;;;;;;;10.06;6.30;;;;;;;3.87;81.09;97788.91;2022368;80;20320;-70
2020/12/07 11:22:04;;;;;;;9.01;6.01;;;;;;;3.89;80.92;97791.47;2022847;80;20896;-70
2020/12/07 11:25:06;;;;;;;9.27;5.78;;;;;;;3.97;81.05;97792.31;2023596;80;20381;-71
2020/12/07 11:28:10;;;;;;;8.55;5.61;;;;;;;3.98;80.31;97793.16;2023055;80;20323;-70
2020/12/07 11:31:14;;;;;;;8.74;5.50;;;;;;;3.99;79.80;97793.16;2026560;80;20353;-71
2020/12/07 11:34:20;;;;;;;9.65;5.68;;;;;;;4.00;79.52;97789.72;2021917;80;20371;-71
2020/12/07 11:37:21;;;;;;;9.41;6.34;;;;;;;3.99;79.34;97785.44;2021772;80;20339;-71
2020/12/07 11:43:52;;;;;;;8.79;6.14;;;;;;;4.04;79.34;97782.84;2022626;80;20335;-70
2020/12/07 11:46:57;;;;;;;8.05;5.38;;;;;;;4.09;79.42;97784.53;2023094;80;20339;-70
2020/12/07 11:49:58;;;;;;;8.35;5.69;;;;;;;4.14;79.23;97789.66;2022510;80;20499;-70
2020/12/07 11:53:00;;;;;;;9.55;6.41;;;;;;;4.20;79.49;97785.34;2022249;80;20363;-71
2020/12/07 11:56:02;;;;;;;8.84;6.18;;;;;;;4.24;79.39;97778.47;2021478;80;20304;-71
2020/12/07 11:59:05;;;;;;;8.20;5.45;;;;;;;4.30;79.30;97780.13;2021536;80;20303;-69
2020/12/07 12:02:06;;;;;;;8.41;5.54;;;;;;;4.28;78.56;97777.56;2022784;80;20319;-71
2020/12/07 12:05:08;;;;;;;6.94;5.15;;;;;;;4.22;78.79;97780.19;2022080;80;20316;-70
2020/12/07 12:08:10;;;;;;;8.66;5.86;;;;;;;4.20;78.78;97775.06;2022883;80;20418;-71
2020/12/07 12:11:11;;;;;;;7.60;5.63;;;;;;;4.19;78.55;97765.66;2023163;80;20328;-70
2020/12/07 12:14:13;;;;;;;8.61;5.59;;;;;;;4.19;78.68;97775.06;2022226;80;20331;-71
2020/12/07 12:17:15;;;;;;;7.97;6.10;;;;;;;4.19;78.38;97772.50;2022478;80;20764;-70
2020/12/07 12:20:16;;;;;;;9.50;5.72;;;;;;;4.20;78.38;97769.94;2022601;80;20392;-70
2020/12/07 12:23:18;;;;;;;8.98;5.91;;;;;;;4.19;78.34;97760.50;2022922;80;20331;-71
2020/12/07 12:26:21;;;;;;;9.10;5.95;;;;;;;4.28;78.45;97761.31;2023060;80;20336;-70
2020/12/07 12:29:22;;;;;;;10.43;5.82;;;;;;;4.38;78.93;97758.69;2022318;80;20341;-71
2020/12/07 12:32:24;;;;;;;9.75;6.56;;;;;;;4.46;78.63;97758.63;2022479;80;20347;-71
2020/12/07 12:35:27;;;;;;;9.06;5.99;;;;;;;4.56;78.64;97765.44;2021710;80;20450;-72
2020/12/07 12:38:28;;;;;;;9.01;5.97;;;;;;;4.59;78.32;97769.69;2021936;80;20337;-71
2020/12/07 12:41:30;;;;;;;9.00;6.28;;;;;;;4.53;77.86;97771.44;2022980;80;20701;-73
2020/12/07 12:44:32;;;;;;;11.77;6.89;;;;;;;4.53;78.17;97768.88;2022111;80;20296;-72
2020/12/07 12:47:33;;;;;;;12.70;6.47;;;;;;;4.53;78.02;97768.88;2022223;80;20315;-71
2020/12/07 12:50:35;;;;;;;11.70;7.06;;;;;;;4.54;77.68;97764.59;2022127;80;20437;-72
2020/12/07 12:53:38;;;;;;;10.63;6.21;;;;;;;4.45;76.94;97769.78;2022400;80;20895;-71
2020/12/07 12:56:40;;;;;;;11.80;6.90;;;;;;;4.41;77.29;97768.09;2022776;80;20334;-71
2020/12/07 12:59:41;;;;;;;10.23;6.21;;;;;;;4.38;77.52;97762.97;2022432;80;20975;-71
2020/12/07 13:02:43;;;;;;;9.65;5.89;;;;;;;4.45;77.88;97760.34;2023017;80;21150;-72
2020/12/07 13:05:45;;;;;;;10.88;6.55;;;;;;;4.51;77.90;97765.47;2022914;80;20850;-71
2020/12/07 13:08:46;;;;;;;10.98;6.14;;;;;;;4.57;78.13;97779.13;2023052;80;20912;-71
2020/12/07 13:11:48;;;;;;;10.21;6.44;;;;;;;4.67;78.11;97775.63;2022072;80;20319;-72
2020/12/07 13:14:50;;;;;;;11.00;6.50;;;;;;;4.72;77.80;97769.59;2022972;80;20349;-71
2020/12/07 13:17:59;;;;;;;11.48;6.85;;;;;;;4.72;77.73;97772.16;2023194;80;20911;-71
2020/12/07 13:21:21;;;;;;;9.68;6.46;;;;;;;4.73;77.25;97779.00;2022724;80;20316;-70
2020/12/07 13:24:35;;;;;;;11.30;5.89;;;;;;;4.73;77.05;97780.72;2022626;80;20277;-72
2020/12/07 13:30:38;;;;;;;11.09;6.18;;;;;;;4.67;77.18;97783.31;2022371;80;20337;-71
2020/12/07 13:33:40;;;;;;;11.06;6.69;;;;;;;4.62;77.17;97775.66;2023105;80;20332;-72
2020/12/07 13:36:44;;;;;;;12.26;6.54;;;;;;;4.56;77.05;97778.28;2023763;80;20409;-72
2020/12/07 13:39:46;;;;;;;11.34;6.50;;;;;;;4.52;76.68;97771.47;2022399;80;20348;-72
2020/12/07 13:42:48;;;;;;;11.66;6.41;;;;;;;4.51;76.88;97777.47;2022751;80;20346;-71
2020/12/07 13:45:49;;;;;;;8.44;6.01;;;;;;;4.52;77.40;97780.03;2022654;80;20834;-71
2020/12/07 13:48:52;;;;;;;13.01;7.78;;;;;;;4.55;77.85;97784.28;2023416;80;20325;-71
2020/12/07 13:51:54;;;;;;;11.26;6.59;;;;;;;4.58;78.15;97780.84;2022799;80;20312;-71
2020/12/07 13:54:56;;;;;;;12.07;7.30;;;;;;;4.59;78.18;97788.53;2021646;80;20364;-72
2020/12/07 13:57:57;;;;;;;11.57;7.43;;;;;;;4.57;78.22;97784.28;2022495;80;20333;-72
2020/12/07 14:01:02;;;;;;;10.59;6.45;;;;;;;4.57;78.06;97786.84;2023054;80;20820;-71
2020/12/07 14:04:10;;;;;;;9.45;6.26;;;;;;;4.54;78.36;97788.56;2022770;80;21344;-71
2020/12/07 14:07:12;;;;;;;8.88;5.74;;;;;;;4.54;78.70;97778.28;2022298;80;20369;-71
2020/12/07 14:10:14;;;;;;;9.96;6.26;;;;;;;4.51;78.79;97788.59;2022472;80;20247;-71
2020/12/07 14:13:18;;;;;;;8.74;6.22;;;;;;;4.53;79.14;97791.16;2022639;80;20535;-71
2020/12/07 14:16:19;;;;;;;11.41;6.93;;;;;;;4.53;79.18;97791.16;2022343;79;20354;-70
2020/12/07 14:26:20;;;;;;;10.15;6.25;;;;;;;4.53;79.53;97793.72;2022611;79;21162;-71
2020/12/07 14:42:23;;;;;;;7.74;5.20;;;;;;;4.49;79.42;97794.63;2023506;80;20358;-73
2020/12/07 14:45:28;;;;;;;8.18;5.63;;;;;;;4.47;79.46;97789.44;2022606;80;20312;-74
2020/12/07 14:48:31;;;;;;;9.32;5.51;;;;;;;4.45;79.47;97790.34;2022404;80;20312;-73
2020/12/07 14:51:47;;;;;;;7.80;5.38;;;;;;;4.44;79.75;97788.63;2022288;80;20327;-73
2020/12/07 14:54:56;;;;;;;8.30;5.64;;;;;;;4.44;79.70;97796.34;2022411;80;20388;-74
2020/12/07 15:11:17;;;;;;;8.61;5.43;;;;;;;4.39;80.21;97787.81;2022655;80;20349;-74
2020/12/07 15:14:00;;;;;;;7.14;5.34;;;;;;;4.38;80.02;97784.38;2022376;80;20363;-73
2020/12/07 15:17:02;;;;;;;7.06;4.69;;;;;;;4.41;79.92;97797.22;2022274;80;20333;-73
2020/12/07 15:20:04;;;;;;;5.78;4.61;;;;;;;4.40;79.80;97789.50;2022177;79;20342;-74
2020/12/07 15:23:06;;;;;;;6.97;5.04;;;;;;;4.35;79.77;97786.97;2021445;80;20347;-73
2020/12/07 15:26:08;;;;;;;8.76;5.03;;;;;;;4.32;79.78;97789.56;2021385;80;20336;-73